Time;durP1;ratioP1;P1;durP2;ratioP2;P2;SDS_P1;SDS_P2;PMS_P1;PMS_P2;Temp;Humidity;BMP_temperature;BMP_pressure;BME280_temperature;BME280_humidity;BME280_pressure;Samples;Min_cycle;Max_cycle;Signal;HPM_P1;HPM_P2
2022/07/06 00:00:07;;;;;;;4.70;3.20;;;17.00;92.00;;;;;;4935683;28;99143;-70
2022/07/06 00:02:34;;;;;;;3.58;1.85;;;17.00;92.10;;;;;;4935535;28;99725;-70
2022/07/06 00:05:01;;;;;;;5.10;1.98;;;17.10;92.10;;;;;;4953629;28;98559;-70
2022/07/06 00:07:30;;;;;;;3.38;1.70;;;17.00;92.20;;;;;;4952998;28;99379;-70
2022/07/06 00:09:58;;;;;;;4.25;2.15;;;17.10;92.20;;;;;;4919388;28;101612;-70
2022/07/06 00:12:25;;;;;;;5.20;1.70;;;17.10;92.40;;;;;;4920382;28;98467;-70
2022/07/06 00:14:52;;;;;;;3.20;1.60;;;17.10;92.60;;;;;;4935821;28;98547;-70
2022/07/06 00:17:19;;;;;;;5.28;2.70;;;17.10;92.70;;;;;;4935787;28;99396;-70
2022/07/06 00:19:46;;;;;;;6.40;2.33;;;17.10;92.70;;;;;;4953273;28;99063;-70
2022/07/06 00:22:13;;;;;;;4.15;1.50;;;17.10;92.80;;;;;;4920205;28;99088;-70
2022/07/06 00:24:40;;;;;;;3.45;2.25;;;17.10;92.90;;;;;;4952901;28;98505;-70
2022/07/06 00:27:07;;;;;;;6.43;2.72;;;17.10;92.90;;;;;;4952541;28;100169;-70
2022/07/06 00:29:34;;;;;;;7.05;2.70;;;17.10;93.00;;;;;;4934939;28;102410;-70
2022/07/06 00:32:01;;;;;;;6.10;1.88;;;17.10;93.10;;;;;;4935589;28;99049;-70
2022/07/06 00:34:28;;;;;;;4.00;2.45;;;17.10;93.10;;;;;;4935581;28;98527;-70
2022/07/06 00:36:55;;;;;;;6.53;2.88;;;17.10;93.10;;;;;;4935093;28;101801;-71
2022/07/06 00:39:28;;;;;;;5.80;2.22;;;17.10;93.20;;;;;;4934731;28;101697;-70
2022/07/06 00:41:56;;;;;;;4.57;2.58;;;17.10;93.20;;;;;;4919381;28;98589;-70
2022/07/06 00:44:24;;;;;;;1.95;1.77;;;17.10;93.30;;;;;;4935879;28;97878;-70
2022/07/06 00:46:51;;;;;;;3.47;1.50;;;17.10;93.20;;;;;;4952743;28;99346;-70
2022/07/06 00:52:04;;;;;;;4.32;2.47;;;17.00;93.30;;;;;;4938531;28;99321;-70
2022/07/06 00:54:32;;;;;;;4.00;2.13;;;17.00;93.40;;;;;;4938453;28;98667;-70
2022/07/06 00:56:59;;;;;;;6.72;3.22;;;17.00;93.30;;;;;;4938374;28;100606;-70
2022/07/06 00:59:28;;;;;;;4.75;2.38;;;16.90;93.20;;;;;;4955474;28;99092;-70
2022/07/06 01:01:55;;;;;;;4.82;1.60;;;16.90;93.10;;;;;;4922468;28;98583;-70
2022/07/06 01:04:22;;;;;;;4.03;1.88;;;16.90;93.20;;;;;;4955864;28;98556;-71
2022/07/06 01:06:49;;;;;;;3.25;1.50;;;17.00;93.20;;;;;;4921990;28;101962;-70
2022/07/06 01:09:16;;;;;;;4.55;1.90;;;17.00;93.00;;;;;;4955787;28;98967;-70
2022/07/06 01:11:43;;;;;;;6.57;1.50;;;17.00;92.80;;;;;;4922227;28;99040;-70
2022/07/06 01:14:12;;;;;;;2.70;2.45;;;17.00;92.80;;;;;;4938604;28;98595;-70
2022/07/06 01:16:39;;;;;;;1.50;1.40;;;17.00;92.70;;;;;;4937233;28;102634;-70
2022/07/06 01:19:06;;;;;;;4.13;1.35;;;17.00;92.60;;;;;;4922136;28;102347;-70
2022/07/06 01:21:33;;;;;;;3.22;2.58;;;17.00;92.50;;;;;;4955745;28;98510;-70
2022/07/06 01:24:00;;;;;;;3.90;2.05;;;17.00;92.40;;;;;;4955606;28;98553;-70
2022/07/06 01:26:27;;;;;;;2.22;1.50;;;17.00;92.50;;;;;;4921903;28;102155;-70
2022/07/06 01:28:54;;;;;;;4.75;1.77;;;17.10;92.50;;;;;;4937472;28;101714;-70
2022/07/06 01:31:25;;;;;;;2.80;2.47;;;17.10;92.50;;;;;;4922005;28;98564;-70
2022/07/06 01:33:55;;;;;;;2.72;2.30;;;17.10;92.50;;;;;;4956030;28;98317;-70
2022/07/06 01:36:22;;;;;;;4.28;3.20;;;17.00;92.50;;;;;;4937694;28;101913;-70
2022/07/06 01:38:57;;;;;;;4.13;1.70;;;17.00;92.40;;;;;;4921622;28;101306;-70
2022/07/06 01:41:25;;;;;;;3.67;2.50;;;17.00;92.30;;;;;;4955405;28;99166;-70
2022/07/06 01:43:52;;;;;;;2.58;1.23;;;17.00;92.30;;;;;;4937932;28;98576;-70
2022/07/06 01:46:19;;;;;;;2.10;1.20;;;17.00;92.30;;;;;;4937858;28;101703;-70
2022/07/06 01:48:47;;;;;;;4.20;1.63;;;16.90;92.30;;;;;;4921526;28;101605;-70
2022/07/06 01:51:14;;;;;;;5.00;1.92;;;16.90;92.50;;;;;;4937909;28;98561;-70
2022/07/06 01:53:43;;;;;;;6.03;2.03;;;16.80;92.70;;;;;;4921988;28;99276;-70
2022/07/06 01:56:11;;;;;;;5.35;2.00;;;16.80;92.80;;;;;;4921439;28;101851;-70
2022/07/06 01:58:39;;;;;;;3.30;2.28;;;16.80;92.90;;;;;;4937144;28;101432;-70
2022/07/06 02:01:08;;;;;;;2.38;1.50;;;16.80;93.00;;;;;;4921037;28;98561;-70
2022/07/06 02:03:36;;;;;;;5.13;3.22;;;16.80;93.30;;;;;;4937321;28;98614;-70
2022/07/06 02:06:05;;;;;;;4.43;2.53;;;16.80;93.20;;;;;;4936499;28;102444;-70
2022/07/06 02:08:33;;;;;;;4.72;1.83;;;16.70;93.30;;;;;;4937188;28;102365;-70
2022/07/06 02:11:01;;;;;;;4.72;2.03;;;16.70;93.50;;;;;;4955077;28;98541;-70
2022/07/06 02:13:29;;;;;;;4.63;2.83;;;16.70;93.60;;;;;;4921917;28;98658;-70
2022/07/06 02:15:56;;;;;;;3.83;2.50;;;16.70;93.60;;;;;;4936678;28;101948;-70
2022/07/06 02:18:23;;;;;;;3.78;1.65;;;16.70;93.70;;;;;;4936807;28;101478;-70
2022/07/06 02:20:50;;;;;;;5.93;2.33;;;16.70;93.80;;;;;;4937094;28;98878;-70
2022/07/06 02:23:17;;;;;;;6.07;2.45;;;16.70;93.80;;;;;;4921504;28;97887;-70
2022/07/06 02:25:45;;;;;;;3.80;1.45;;;16.70;93.90;;;;;;4920582;28;101752;-70
2022/07/06 02:28:12;;;;;;;2.70;1.65;;;16.70;93.90;;;;;;4936667;28;101814;-70
2022/07/06 02:30:39;;;;;;;3.70;2.58;;;16.70;94.00;;;;;;4936809;28;99614;-70
2022/07/06 02:33:06;;;;;;;3.70;2.28;;;16.70;94.00;;;;;;4920877;28;98593;-70
2022/07/06 02:35:34;;;;;;;3.92;1.70;;;16.70;94.10;;;;;;4920801;28;101692;-70
2022/07/06 02:38:01;;;;;;;1.73;1.25;;;16.70;94.10;;;;;;4936298;28;101499;-70
2022/07/06 02:40:28;;;;;;;3.60;2.47;;;16.70;94.10;;;;;;4920962;28;98645;-70
2022/07/06 02:42:55;;;;;;;3.28;1.27;;;16.60;94.10;;;;;;4920817;28;98605;-70
2022/07/06 02:45:22;;;;;;;2.25;1.45;;;16.60;94.10;;;;;;4920511;28;101854;-70
2022/07/06 02:47:50;;;;;;;2.95;2.75;;;16.60;94.00;;;;;;4936719;28;101908;-70
2022/07/06 02:50:17;;;;;;;2.65;1.70;;;16.60;94.20;;;;;;4920782;28;98581;-70
2022/07/06 02:52:45;;;;;;;4.63;1.38;;;16.60;93.90;;;;;;4936849;28;98718;-70
2022/07/06 02:55:12;;;;;;;6.13;1.55;;;16.60;93.90;;;;;;4919685;28;102811;-70
2022/07/06 02:57:41;;;;;;;3.00;1.52;;;16.70;93.80;;;;;;4920612;28;101995;-70
2022/07/06 03:00:09;;;;;;;3.05;1.25;;;16.70;93.80;;;;;;4953811;28;98616;-70
2022/07/06 03:02:36;;;;;;;3.72;1.75;;;16.70;93.70;;;;;;4920888;28;98565;-70
2022/07/06 03:05:04;;;;;;;3.28;2.50;;;16.70;93.70;;;;;;4936006;28;101526;-70
2022/07/06 03:07:31;;;;;;;3.42;2.28;;;16.70;93.60;;;;;;4935879;28;101672;-70
2022/07/06 03:09:59;;;;;;;5.07;1.65;;;16.70;93.70;;;;;;4936360;28;98618;-70
2022/07/06 03:12:27;;;;;;;3.55;2.83;;;16.70;93.70;;;;;;4936577;28;97918;-70
2022/07/06 03:14:54;;;;;;;4.97;2.20;;;16.70;93.60;;;;;;4935700;28;101577;-70
2022/07/06 03:17:22;;;;;;;4.57;1.55;;;16.70;93.60;;;;;;4936023;28;101435;-70
2022/07/06 03:19:50;;;;;;;2.47;1.25;;;16.60;93.50;;;;;;4935826;28;99684;-70
2022/07/06 03:22:17;;;;;;;6.00;2.10;;;16.60;93.50;;;;;;4936370;28;98699;-70
2022/07/06 03:24:44;;;;;;;2.40;1.42;;;16.60;93.50;;;;;;4953915;28;99046;-70
2022/07/06 03:27:11;;;;;;;3.08;1.50;;;16.60;93.50;;;;;;4953414;28;99088;-70
2022/07/06 03:29:39;;;;;;;2.97;1.70;;;16.60;93.50;;;;;;4936285;28;98632;-70
2022/07/06 03:32:06;;;;;;;3.25;1.70;;;16.60;93.40;;;;;;4936608;28;98613;-70
2022/07/06 03:34:33;;;;;;;2.75;1.38;;;16.60;93.40;;;;;;4935665;28;101612;-70
2022/07/06 03:37:01;;;;;;;5.13;2.17;;;16.60;93.70;;;;;;4919961;28;101390;-70
2022/07/06 03:39:28;;;;;;;4.57;1.60;;;16.60;93.40;;;;;;4936152;28;98628;-70
2022/07/06 03:41:57;;;;;;;3.20;1.60;;;16.60;93.40;;;;;;4920120;28;98643;-70
2022/07/06 03:44:24;;;;;;;4.15;2.00;;;16.60;93.40;;;;;;4919364;28;102361;-70
2022/07/06 03:46:54;;;;;;;4.20;1.40;;;16.60;93.40;;;;;;4935416;28;102353;-70
2022/07/06 03:49:26;;;;;;;5.47;2.95;;;16.60;93.40;;;;;;4936128;28;98879;-70
2022/07/06 03:51:55;;;;;;;6.47;1.80;;;16.60;93.40;;;;;;4936028;28;98621;-70
2022/07/06 03:54:22;;;;;;;1.67;1.10;;;16.60;93.40;;;;;;4935339;28;102187;-70
2022/07/06 03:56:49;;;;;;;4.07;1.50;;;16.50;93.70;;;;;;4935414;28;101763;-70
2022/07/06 03:59:16;;;;;;;3.40;1.40;;;16.60;93.50;;;;;;4935335;28;98905;-70
2022/07/06 04:01:44;;;;;;;3.88;2.17;;;16.80;93.40;;;;;;4920088;28;97823;-70
2022/07/06 04:04:13;;;;;;;2.92;2.30;;;17.00;93.00;;;;;;4934845;28;101662;-70
2022/07/06 04:06:43;;;;;;;4.68;2.67;;;17.10;92.80;;;;;;4935486;28;101541;-70
2022/07/06 04:09:10;;;;;;;2.25;1.30;;;17.10;92.70;;;;;;4935236;28;99310;-71
2022/07/06 04:11:39;;;;;;;4.60;2.03;;;17.10;92.70;;;;;;4935681;28;99102;-70
2022/07/06 04:14:07;;;;;;;2.95;2.05;;;17.20;92.60;;;;;;4918764;28;101775;-70
2022/07/06 04:16:34;;;;;;;4.72;1.35;;;17.20;92.50;;;;;;4919591;28;98698;-70
2022/07/06 04:19:02;;;;;;;4.00;2.40;;;17.20;92.50;;;;;;4935549;28;99081;-70
2022/07/06 04:21:29;;;;;;;4.03;2.75;;;17.20;92.40;;;;;;4919714;28;98535;-70
2022/07/06 04:23:55;;;;;;;5.68;2.33;;;17.20;92.60;;;;;;4935061;28;101822;-70
2022/07/06 04:26:23;;;;;;;2.88;1.50;;;17.30;92.50;;;;;;4934523;28;101443;-70
2022/07/06 04:28:50;;;;;;;5.45;1.60;;;17.30;92.50;;;;;;4903672;28;98589;-70
2022/07/06 04:31:18;;;;;;;3.47;2.13;;;17.30;92.50;;;;;;4935087;28;98660;-70
2022/07/06 04:33:47;;;;;;;2.67;2.15;;;17.30;92.60;;;;;;4919098;28;102303;-70
2022/07/06 04:36:14;;;;;;;4.07;1.60;;;17.30;92.60;;;;;;4934864;28;101853;-70
2022/07/06 04:38:43;;;;;;;3.92;2.42;;;17.30;92.50;;;;;;4935275;28;99013;-70
2022/07/06 04:41:11;;;;;;;6.45;2.08;;;17.30;92.60;;;;;;4934728;28;98636;-70
2022/07/06 04:43:38;;;;;;;4.53;1.45;;;17.20;92.60;;;;;;4952536;28;99260;-70
2022/07/06 04:46:06;;;;;;;3.20;2.75;;;17.20;92.70;;;;;;4934593;28;101620;-70
2022/07/06 04:48:39;;;;;;;5.20;2.70;;;17.20;92.80;;;;;;4935209;28;98588;-70
2022/07/06 04:51:09;;;;;;;2.77;1.47;;;17.10;92.90;;;;;;4935361;28;97798;-70
2022/07/06 04:53:36;;;;;;;5.35;1.80;;;17.10;92.90;;;;;;4934678;28;101974;-70
2022/07/06 04:56:04;;;;;;;6.03;2.60;;;17.10;93.00;;;;;;4934791;28;101089;-71
2022/07/06 04:58:34;;;;;;;4.43;2.83;;;17.10;93.00;;;;;;4934560;28;99368;-70
2022/07/06 05:01:02;;;;;;;5.53;2.90;;;17.10;93.00;;;;;;4918809;28;98645;-71
2022/07/06 05:03:29;;;;;;;1.85;1.73;;;17.10;93.30;;;;;;4918328;28;101916;-70
2022/07/06 05:05:56;;;;;;;4.75;1.88;;;17.10;93.10;;;;;;4918963;28;101525;-70
2022/07/06 05:08:23;;;;;;;2.13;1.52;;;17.20;92.90;;;;;;4934837;28;98583;-71
2022/07/06 05:10:51;;;;;;;4.38;1.67;;;17.30;92.80;;;;;;4934918;28;98546;-70
2022/07/06 05:13:20;;;;;;;4.63;1.67;;;17.40;92.70;;;;;;4934263;28;101619;-70
2022/07/06 05:15:48;;;;;;;5.20;1.65;;;17.70;92.40;;;;;;4934879;28;101345;-70
2022/07/06 05:18:15;;;;;;;2.10;1.00;;;18.00;92.00;;;;;;4934797;28;99066;-70
2022/07/06 05:20:42;;;;;;;6.75;2.50;;;18.30;91.50;;;;;;4934473;28;98722;-71
2022/07/06 05:23:10;;;;;;;4.15;1.42;;;18.50;91.20;;;;;;4951226;28;99769;-70
2022/07/06 05:25:37;;;;;;;3.15;1.25;;;18.80;90.60;;;;;;4934238;28;102304;-71
2022/07/06 05:28:04;;;;;;;7.18;1.27;;;19.10;90.00;;;;;;4918575;28;98640;-70
2022/07/06 05:30:31;;;;;;;4.88;1.42;;;19.30;87.90;;;;;;4918331;28;100169;-70
2022/07/06 05:32:58;;;;;;;2.30;1.00;;;19.20;86.10;;;;;;4933968;28;102035;-70
2022/07/06 05:35:26;;;;;;;5.18;2.53;;;19.20;86.40;;;;;;4933798;28;100952;-70
2022/07/06 05:38:13;;;;;;;3.95;1.85;;;19.30;86.40;;;;;;4924277;28;98643;-70
2022/07/06 05:40:41;;;;;;;3.17;0.90;;;19.20;86.80;;;;;;4938419;28;97862;-70
2022/07/06 05:43:08;;;;;;;3.47;2.22;;;19.20;86.80;;;;;;4955157;28;99264;-70
2022/07/06 05:45:35;;;;;;;2.45;1.35;;;19.20;86.80;;;;;;4937443;28;99212;-70
2022/07/06 05:50:48;;;;;;;2.83;1.70;;;19.10;86.50;;;;;;4937324;28;98577;-71
2022/07/06 05:53:15;;;;;;;3.65;1.15;;;19.10;86.40;;;;;;4954535;28;99300;-71
2022/07/06 05:55:48;;;;;;;5.15;1.20;;;19.10;86.40;;;;;;4937010;28;101157;-71
2022/07/06 05:58:15;;;;;;;4.60;1.13;;;19.10;86.30;;;;;;4936437;28;99726;-70
2022/07/06 06:00:44;;;;;;;2.75;2.35;;;19.10;86.20;;;;;;4937473;28;98586;-70
2022/07/06 06:03:15;;;;;;;4.28;2.85;;;19.20;85.90;;;;;;4936903;28;101502;-70
2022/07/06 06:05:43;;;;;;;2.03;1.75;;;19.20;85.50;;;;;;4921568;28;101045;-70
2022/07/06 06:08:11;;;;;;;3.10;1.38;;;19.30;85.40;;;;;;4937352;28;98549;-70
2022/07/06 06:10:38;;;;;;;3.63;1.98;;;19.40;85.40;;;;;;4921092;28;98562;-70
2022/07/06 06:13:08;;;;;;;4.25;2.25;;;19.50;85.20;;;;;;4920927;28;102308;-70
2022/07/06 06:15:36;;;;;;;2.85;1.08;;;19.60;84.70;;;;;;4936811;28;102060;-70
2022/07/06 06:18:04;;;;;;;2.45;1.80;;;19.80;84.20;;;;;;4937203;28;98730;-70
2022/07/06 06:20:31;;;;;;;2.67;1.60;;;19.90;83.80;;;;;;4954530;28;98890;-71
2022/07/06 06:23:00;;;;;;;5.93;1.77;;;20.10;83.10;;;;;;4936772;28;101941;-70
2022/07/06 06:25:35;;;;;;;3.00;1.85;;;20.30;83.30;;;;;;4936580;28;99683;-71
2022/07/06 06:28:04;;;;;;;5.35;2.58;;;20.50;82.30;;;;;;4955112;28;98588;-71
2022/07/06 06:30:32;;;;;;;3.22;1.00;;;20.60;81.90;;;;;;4954524;28;97784;-71
2022/07/06 06:33:11;;;;;;;2.17;2.00;;;20.70;81.30;;;;;;4954530;28;99437;-71
2022/07/06 06:35:46;;;;;;;3.08;0.80;;;20.80;80.70;;;;;;4936772;28;99050;-70
2022/07/06 06:38:14;;;;;;;2.33;0.93;;;20.80;80.50;;;;;;4954298;28;99283;-70
2022/07/06 06:40:42;;;;;;;1.58;1.48;;;20.70;80.30;;;;;;4954418;28;98534;-71
2022/07/06 06:43:09;;;;;;;3.05;1.02;;;20.70;79.50;;;;;;4954200;28;99259;-71
2022/07/06 06:45:50;;;;;;;3.05;1.58;;;20.80;79.50;;;;;;4936625;28;101361;-71
2022/07/06 06:48:18;;;;;;;1.58;0.68;;;20.80;79.00;;;;;;4953414;28;98521;-71
2022/07/06 06:50:46;;;;;;;1.20;0.88;;;20.90;78.40;;;;;;4936962;28;98895;-71
2022/07/06 06:53:13;;;;;;;2.28;1.40;;;21.00;77.40;;;;;;4936421;28;99358;-71
2022/07/06 06:55:40;;;;;;;3.47;1.60;;;21.10;76.50;;;;;;4936326;28;101691;-71
2022/07/06 06:58:07;;;;;;;3.28;1.67;;;21.30;75.90;;;;;;4936266;28;98606;-71
2022/07/06 07:00:34;;;;;;;4.00;1.75;;;21.50;74.60;;;;;;4954171;28;98531;-71
2022/07/06 07:03:01;;;;;;;1.38;1.13;;;21.70;74.00;;;;;;4953320;28;99986;-71
2022/07/06 07:05:28;;;;;;;2.00;0.70;;;22.00;72.50;;;;;;4919906;28;102451;-71
2022/07/06 07:07:58;;;;;;;1.55;1.13;;;22.20;71.30;;;;;;4954214;28;98531;-71
2022/07/06 07:10:30;;;;;;;3.72;2.78;;;22.40;69.80;;;;;;4936107;28;99118;-71
2022/07/06 07:12:58;;;;;;;4.35;0.90;;;22.50;69.70;;;;;;4953517;28;99264;-71
2022/07/06 07:15:25;;;;;;;1.85;1.20;;;22.60;70.20;;;;;;4936103;28;98903;-71
2022/07/06 07:17:51;;;;;;;3.08;0.90;;;22.70;70.90;;;;;;4954194;28;98510;-71
2022/07/06 07:20:18;;;;;;;3.67;1.67;;;22.70;71.80;;;;;;4937010;28;97837;-71
2022/07/06 07:22:45;;;;;;;1.45;1.35;;;22.70;72.50;;;;;;4953696;28;99353;-71
2022/07/06 07:25:12;;;;;;;3.45;1.67;;;22.60;72.00;;;;;;4936315;28;98939;-71
2022/07/06 07:27:39;;;;;;;2.70;1.90;;;22.50;72.60;;;;;;4935953;28;99345;-71
2022/07/06 07:30:07;;;;;;;3.15;0.80;;;22.60;72.80;;;;;;4936390;28;99380;-71
2022/07/06 07:32:34;;;;;;;2.75;1.67;;;22.50;73.10;;;;;;4936032;28;99305;-71
2022/07/06 07:35:01;;;;;;;2.97;1.08;;;22.50;73.00;;;;;;4936139;28;99382;-71
2022/07/06 07:37:28;;;;;;;5.13;0.90;;;22.60;72.90;;;;;;4953630;28;98651;-71
2022/07/06 07:39:55;;;;;;;4.10;1.90;;;22.50;72.60;;;;;;4953855;28;98722;-71
2022/07/06 07:42:22;;;;;;;3.47;1.83;;;22.40;72.70;;;;;;4953645;28;99378;-71
2022/07/06 07:44:48;;;;;;;3.05;1.98;;;22.40;73.00;;;;;;4953695;28;97951;-71
2022/07/06 07:47:15;;;;;;;2.42;0.80;;;22.40;72.90;;;;;;4953606;28;98448;-71
2022/07/06 07:49:43;;;;;;;2.47;2.28;;;22.40;73.10;;;;;;4953473;28;98519;-71
2022/07/06 07:52:10;;;;;;;5.30;1.40;;;22.40;72.90;;;;;;4935306;28;104621;-71
2022/07/06 07:54:37;;;;;;;5.53;1.10;;;22.40;73.20;;;;;;4935609;28;99482;-71
2022/07/06 07:57:10;;;;;;;3.50;1.00;;;22.30;72.80;;;;;;4920616;28;99072;-71
2022/07/06 07:59:37;;;;;;;2.25;1.77;;;22.30;72.80;;;;;;4931731;28;98629;-71
2022/07/06 08:02:03;;;;;;;5.07;1.58;;;22.20;72.90;;;;;;4916233;28;101991;-71
2022/07/06 08:04:30;;;;;;;8.25;1.20;;;22.10;73.80;;;;;;4933531;28;99072;-71
2022/07/06 08:06:57;;;;;;;3.17;1.13;;;22.20;73.80;;;;;;4933969;28;98501;-71
2022/07/06 08:09:27;;;;;;;3.10;1.05;;;22.30;73.70;;;;;;4932826;28;97765;-71
2022/07/06 08:11:54;;;;;;;4.50;2.13;;;22.40;73.20;;;;;;4931763;28;99341;-71
2022/07/06 08:14:21;;;;;;;3.15;1.20;;;22.80;72.90;;;;;;4933374;28;99139;-71
2022/07/06 08:16:48;;;;;;;4.97;1.65;;;23.30;72.10;;;;;;4931879;28;99404;-71
2022/07/06 08:19:16;;;;;;;2.50;1.10;;;24.10;70.40;;;;;;4933837;28;98506;-71
2022/07/06 08:21:43;;;;;;;3.03;1.00;;;25.20;68.00;;;;;;4932977;28;99343;-71
2022/07/06 08:24:11;;;;;;;3.92;2.00;;;26.50;65.00;;;;;;4933401;28;99059;-72
2022/07/06 08:26:38;;;;;;;2.10;0.70;;;27.30;62.70;;;;;;4933472;28;98965;-72
2022/07/06 08:29:05;;;;;;;2.67;2.35;;;28.20;60.00;;;;;;4933515;28;98603;-72
2022/07/06 08:31:34;;;;;;;3.28;1.23;;;28.80;57.00;;;;;;4931779;28;100438;-72
2022/07/06 08:34:21;;;;;;;4.15;1.42;;;28.70;55.90;;;;;;4918641;28;101472;-72
2022/07/06 08:36:49;;;;;;;2.80;1.13;;;28.50;54.20;;;;;;4931451;28;98690;-72
2022/07/06 08:39:16;;;;;;;4.10;1.58;;;28.30;53.70;;;;;;4933758;28;99314;-72
2022/07/06 08:41:47;;;;;;;3.97;0.93;;;28.00;53.40;;;;;;4931428;28;100064;-72
2022/07/06 08:44:15;;;;;;;2.30;0.95;;;27.50;53.10;;;;;;4933229;28;99688;-72
2022/07/06 08:46:42;;;;;;;2.42;1.30;;;27.10;54.10;;;;;;4932076;28;98656;-72
2022/07/06 08:49:14;;;;;;;2.70;0.82;;;27.10;54.50;;;;;;4933327;28;98422;-71
2022/07/06 08:51:41;;;;;;;3.67;2.33;;;27.20;54.60;;;;;;4931284;28;101928;-72
2022/07/06 08:54:10;;;;;;;4.88;1.00;;;27.30;54.80;;;;;;4933057;28;98846;-71
2022/07/06 08:56:39;;;;;;;1.67;1.20;;;27.50;54.20;;;;;;4933247;28;99000;-72
2022/07/06 08:59:12;;;;;;;4.10;0.88;;;27.50;54.10;;;;;;4941010;28;97712;-72
2022/07/06 09:01:39;;;;;;;3.33;1.00;;;27.80;53.90;;;;;;4934938;28;99296;-71
2022/07/06 09:04:07;;;;;;;5.13;2.25;;;28.10;53.40;;;;;;4918440;28;102022;-71
2022/07/06 09:06:36;;;;;;;1.42;0.90;;;27.90;53.70;;;;;;4952288;28;99316;-71
2022/07/06 09:09:06;;;;;;;3.53;1.35;;;27.60;53.00;;;;;;4935396;28;98578;-71
2022/07/06 09:11:35;;;;;;;4.22;1.33;;;27.30;54.40;;;;;;4920009;28;100295;-72
2022/07/06 09:14:02;;;;;;;2.88;1.00;;;27.00;55.70;;;;;;4955204;28;101108;-71
2022/07/06 09:16:30;;;;;;;3.13;2.03;;;26.80;55.80;;;;;;4955950;28;98542;-72
2022/07/06 09:19:07;;;;;;;2.70;1.10;;;26.70;56.30;;;;;;4925224;28;98573;-72
2022/07/06 09:21:37;;;;;;;3.50;1.20;;;26.70;56.00;;;;;;4955517;28;99255;-71
2022/07/06 09:24:10;;;;;;;5.30;1.00;;;26.70;55.90;;;;;;4955727;28;99099;-71
2022/07/06 09:26:38;;;;;;;3.28;1.00;;;26.70;55.80;;;;;;4938397;28;99303;-71
2022/07/06 09:29:06;;;;;;;3.33;1.45;;;26.60;56.20;;;;;;4955472;28;98710;-71
2022/07/06 09:31:33;;;;;;;3.40;1.00;;;26.70;56.30;;;;;;4937586;28;100578;-71
2022/07/06 09:34:06;;;;;;;5.25;1.48;;;26.80;56.30;;;;;;4955010;28;99740;-71
2022/07/06 09:36:45;;;;;;;1.88;0.90;;;27.00;56.60;;;;;;4955741;28;98575;-71
2022/07/06 09:39:22;;;;;;;1.98;1.10;;;27.10;55.20;;;;;;4937863;28;98543;-71
2022/07/06 09:41:54;;;;;;;4.65;1.25;;;27.00;55.50;;;;;;4955154;28;99454;-71
2022/07/06 09:44:32;;;;;;;1.87;0.73;;;26.90;55.00;;;;;;4955355;28;98948;-71
2022/07/06 09:47:02;;;;;;;3.50;1.65;;;26.70;54.20;;;;;;4955576;28;98673;-71
2022/07/06 09:49:29;;;;;;;2.53;1.88;;;26.40;55.40;;;;;;4937891;28;99618;-71
2022/07/06 09:51:59;;;;;;;2.35;1.70;;;26.20;53.90;;;;;;4937120;28;99241;-71
2022/07/06 09:54:26;;;;;;;3.72;1.92;;;26.00;53.00;;;;;;4954820;28;98920;-71
2022/07/06 09:56:55;;;;;;;2.05;0.57;;;25.80;53.40;;;;;;4937408;28;99309;-71
2022/07/06 09:59:24;;;;;;;2.45;0.60;;;25.70;54.30;;;;;;4918178;28;99062;-71
2022/07/06 10:01:56;;;;;;;4.40;1.63;;;25.70;53.80;;;;;;4935121;28;99542;-71
2022/07/06 10:04:25;;;;;;;3.42;1.95;;;25.60;53.70;;;;;;4935640;28;99018;-71
2022/07/06 10:06:53;;;;;;;1.08;0.60;;;25.50;54.70;;;;;;4917998;28;98592;-71
2022/07/06 10:09:23;;;;;;;2.33;1.23;;;25.30;54.60;;;;;;4935790;28;99004;-71
2022/07/06 10:12:02;;;;;;;1.75;1.05;;;25.20;54.20;;;;;;4935089;28;99179;-71
2022/07/06 10:14:30;;;;;;;2.05;1.48;;;25.20;54.80;;;;;;4935597;28;99197;-71
2022/07/06 10:16:59;;;;;;;1.55;1.20;;;25.10;55.40;;;;;;4935332;28;99055;-71
2022/07/06 10:19:28;;;;;;;3.28;1.38;;;25.00;56.30;;;;;;4935394;28;98519;-71
2022/07/06 10:21:58;;;;;;;2.17;0.60;;;24.90;56.50;;;;;;4932415;28;117909;-71
2022/07/06 10:24:28;;;;;;;1.20;0.80;;;24.80;56.80;;;;;;4934514;28;99814;-71
2022/07/06 10:26:55;;;;;;;4.00;0.80;;;24.80;57.10;;;;;;4933902;28;98707;-71
2022/07/06 10:29:23;;;;;;;2.03;1.75;;;24.80;57.30;;;;;;4935256;28;98517;-71
2022/07/06 10:31:51;;;;;;;2.55;1.25;;;25.00;57.90;;;;;;4934574;28;99359;-71
2022/07/06 10:34:19;;;;;;;3.33;1.58;;;25.20;58.00;;;;;;4934879;28;98967;-71
2022/07/06 10:36:53;;;;;;;2.38;0.93;;;25.40;57.40;;;;;;4933858;28;99401;-71
2022/07/06 10:42:39;;;;;;;3.58;1.05;;;25.70;56.20;;;;;;4933374;28;103252;-71
2022/07/06 10:45:06;;;;;;;2.33;0.70;;;25.50;56.10;;;;;;4934778;28;99002;-71
2022/07/06 10:47:35;;;;;;;4.35;1.20;;;25.30;56.80;;;;;;4933697;28;99319;-71
2022/07/06 10:50:03;;;;;;;2.38;0.80;;;25.30;56.50;;;;;;4934774;28;98513;-71
2022/07/06 10:52:57;;;;;;;2.83;1.23;;;25.20;55.20;;;;;;4933358;28;99359;-71
2022/07/06 10:55:42;;;;;;;2.05;0.80;;;25.30;56.00;;;;;;4933397;28;101724;-71
2022/07/06 10:58:10;;;;;;;1.65;0.75;;;25.50;55.70;;;;;;4934903;28;98633;-71
2022/07/06 11:00:54;;;;;;;2.10;1.95;;;25.30;55.20;;;;;;4953648;28;98589;-71
2022/07/06 11:03:55;;;;;;;2.13;0.90;;;25.50;55.20;;;;;;4936197;28;101716;-71
2022/07/06 11:06:25;;;;;;;1.92;0.77;;;25.50;55.00;;;;;;4952861;28;99397;-71
2022/07/06 11:09:04;;;;;;;1.70;0.90;;;25.30;55.80;;;;;;4921124;28;98607;-71
2022/07/06 11:11:31;;;;;;;2.50;1.27;;;25.40;56.10;;;;;;4954062;28;98538;-71
2022/07/06 11:14:01;;;;;;;0.90;0.57;;;25.50;56.50;;;;;;4953090;28;100073;-71
2022/07/06 11:16:34;;;;;;;4.85;1.30;;;25.60;54.70;;;;;;4936076;28;102458;-71
2022/07/06 11:19:02;;;;;;;2.42;2.25;;;25.60;54.70;;;;;;4920779;28;98964;-71
2022/07/06 11:21:35;;;;;;;1.55;1.08;;;25.70;55.10;;;;;;4936245;28;98629;-71
2022/07/06 11:24:04;;;;;;;5.93;2.42;;;25.70;55.00;;;;;;4936151;28;99237;-71
2022/07/06 11:26:32;;;;;;;1.77;1.02;;;25.70;54.80;;;;;;4953456;28;99220;-71
2022/07/06 11:29:06;;;;;;;3.20;2.17;;;25.60;54.20;;;;;;4937775;28;99131;-71
2022/07/06 11:31:38;;;;;;;1.45;0.70;;;25.70;54.40;;;;;;4936546;28;97880;-71
2022/07/06 11:34:07;;;;;;;2.05;0.90;;;26.00;54.80;;;;;;4953063;28;99280;-71
2022/07/06 11:36:34;;;;;;;1.63;0.80;;;26.20;54.50;;;;;;4953383;28;98992;-71
2022/07/06 11:39:06;;;;;;;2.35;0.80;;;26.20;54.30;;;;;;4953489;28;99300;-71
2022/07/06 11:41:33;;;;;;;1.88;0.77;;;26.30;53.70;;;;;;4934792;28;99065;-73
2022/07/06 11:44:01;;;;;;;2.55;0.88;;;26.20;53.10;;;;;;4934180;28;101792;-71
2022/07/06 11:46:29;;;;;;;1.60;0.90;;;26.10;53.20;;;;;;4932074;28;99074;-73
2022/07/06 11:49:07;;;;;;;4.95;1.15;;;26.20;53.20;;;;;;4929348;28;99800;-72
2022/07/06 11:51:38;;;;;;;1.42;0.73;;;26.30;53.00;;;;;;4953045;28;98990;-72
2022/07/06 11:54:25;;;;;;;2.38;0.73;;;26.10;52.80;;;;;;4931671;28;100188;-73
2022/07/06 11:56:58;;;;;;;4.28;0.82;;;26.10;54.80;;;;;;4945368;28;99350;-72
2022/07/06 11:59:31;;;;;;;2.17;0.82;;;26.10;55.20;;;;;;4929918;28;99480;-73
2022/07/06 12:02:11;;;;;;;2.50;0.70;;;26.10;54.80;;;;;;4066547;28;10000705;-75
2022/07/06 12:04:41;;;;;;;1.83;0.88;;;26.30;54.70;;;;;;4887855;28;99718;-74
2022/07/06 12:07:13;;;;;;;2.67;0.80;;;26.60;54.40;;;;;;4918527;28;98715;-72
2022/07/06 12:09:46;;;;;;;3.22;0.93;;;26.90;53.90;;;;;;4932911;28;102446;-72
2022/07/06 12:12:13;;;;;;;1.87;0.97;;;27.20;52.90;;;;;;4952569;28;99817;-71
2022/07/06 12:14:41;;;;;;;2.70;0.90;;;27.30;52.30;;;;;;4951852;28;98516;-71
2022/07/06 12:17:14;;;;;;;1.58;0.90;;;27.20;51.70;;;;;;4933825;28;99449;-71
2022/07/06 12:19:42;;;;;;;2.08;0.98;;;27.20;51.80;;;;;;4952297;28;99383;-71
2022/07/06 12:22:09;;;;;;;2.50;0.88;;;26.90;52.20;;;;;;4934312;28;101452;-70
2022/07/06 12:24:43;;;;;;;2.10;0.80;;;26.80;52.60;;;;;;4932432;28;99521;-72
2022/07/06 12:27:12;;;;;;;2.58;1.10;;;26.70;52.90;;;;;;4947269;28;98522;-70
2022/07/06 12:29:51;;;;;;;2.08;0.80;;;26.60;53.80;;;;;;4952131;28;100637;-70
2022/07/06 12:33:08;;;;;;;2.15;0.90;;;26.50;53.40;;;;;;4936830;28;99895;-70
2022/07/06 12:39:13;;;;;;;2.83;0.90;;;26.20;54.10;;;;;;4934029;28;99507;-69
2022/07/06 12:41:49;;;;;;;1.02;0.70;;;26.30;54.30;;;;;;4952752;28;100750;-69
2022/07/06 12:44:19;;;;;;;4.57;0.82;;;26.40;53.40;;;;;;4959941;28;99034;-69
2022/07/06 12:46:47;;;;;;;1.48;0.90;;;26.60;53.40;;;;;;4953711;28;98660;-70
2022/07/06 12:49:18;;;;;;;1.55;0.70;;;26.70;53.90;;;;;;4936319;28;98262;-69
2022/07/06 12:51:56;;;;;;;4.65;1.15;;;26.80;53.10;;;;;;4918423;28;102110;-69
2022/07/06 12:54:49;;;;;;;2.58;1.02;;;27.00;51.50;;;;;;4948166;28;99106;-69
2022/07/06 12:57:25;;;;;;;1.95;0.70;;;27.20;51.90;;;;;;4937790;28;99846;-70
2022/07/06 12:59:57;;;;;;;2.30;0.93;;;27.20;51.80;;;;;;4954142;28;99118;-69
2022/07/06 13:02:31;;;;;;;2.05;1.08;;;27.30;51.30;;;;;;4955817;28;100346;-69
2022/07/06 13:05:18;;;;;;;4.72;0.88;;;27.40;50.10;;;;;;4940234;28;98921;-69